sensor_id;sensor_type;location;lat;lon;timestamp;P1;durP1;ratioP1;P2;durP2;ratioP2
33593;SDS011;19920;52.242;20.940;2022-07-17T00:00:56;5.65;;;2.30;;
33593;SDS011;19920;52.242;20.940;2022-07-17T00:03:23;2.97;;;1.98;;
33593;SDS011;19920;52.242;20.940;2022-07-17T00:05:49;5.60;;;2.55;;
33593;SDS011;19920;52.242;20.940;2022-07-17T00:08:14;5.38;;;1.98;;
33593;SDS011;19920;52.242;20.940;2022-07-17T00:10:41;3.55;;;1.67;;
33593;SDS011;19920;52.242;20.940;2022-07-17T00:13:08;2.10;;;1.55;;
33593;SDS011;19920;52.242;20.940;2022-07-17T00:15:34;2.35;;;1.80;;
33593;SDS011;19920;52.242;20.940;2022-07-17T00:18:00;3.25;;;2.05;;
33593;SDS011;19920;52.242;20.940;2022-07-17T00:20:27;4.22;;;2.28;;
33593;SDS011;19920;52.242;20.940;2022-07-17T00:22:54;7.32;;;1.95;;
33593;SDS011;19920;52.242;20.940;2022-07-17T00:25:23;3.20;;;1.90;;
33593;SDS011;19920;52.242;20.940;2022-07-17T00:27:49;4.60;;;2.03;;
33593;SDS011;19920;52.242;20.940;2022-07-17T00:30:15;4.57;;;2.03;;
33593;SDS011;19920;52.242;20.940;2022-07-17T00:32:41;3.53;;;1.80;;
33593;SDS011;19920;52.242;20.940;2022-07-17T00:35:08;4.50;;;2.30;;
33593;SDS011;19920;52.242;20.940;2022-07-17T00:37:37;3.65;;;1.80;;
33593;SDS011;19920;52.242;20.940;2022-07-17T00:40:08;5.55;;;1.98;;
33593;SDS011;19920;52.242;20.940;2022-07-17T00:42:35;4.20;;;2.13;;
33593;SDS011;19920;52.242;20.940;2022-07-17T00:45:03;6.25;;;2.10;;
33593;SDS011;19920;52.242;20.940;2022-07-17T00:47:29;3.95;;;1.88;;
33593;SDS011;19920;52.242;20.940;2022-07-17T00:49:55;4.57;;;2.42;;
33593;SDS011;19920;52.242;20.940;2022-07-17T00:52:20;6.85;;;2.17;;
33593;SDS011;19920;52.242;20.940;2022-07-17T00:54:46;4.78;;;2.10;;
33593;SDS011;19920;52.242;20.940;2022-07-17T00:57:13;3.70;;;1.90;;
33593;SDS011;19920;52.242;20.940;2022-07-17T00:59:40;3.83;;;1.90;;
33593;SDS011;19920;52.242;20.940;2022-07-17T01:02:07;6.55;;;2.13;;
33593;SDS011;19920;52.242;20.940;2022-07-17T01:04:36;4.53;;;1.90;;
33593;SDS011;19920;52.242;20.940;2022-07-17T01:07:03;5.15;;;2.25;;
33593;SDS011;19920;52.242;20.940;2022-07-17T01:09:31;4.90;;;2.20;;
33593;SDS011;19920;52.242;20.940;2022-07-17T01:11:57;4.30;;;2.22;;
33593;SDS011;19920;52.242;20.940;2022-07-17T01:14:23;6.28;;;2.60;;
33593;SDS011;19920;52.242;20.940;2022-07-17T01:16:50;4.80;;;2.38;;
33593;SDS011;19920;52.242;20.940;2022-07-17T01:19:17;7.57;;;2.70;;
33593;SDS011;19920;52.242;20.940;2022-07-17T01:21:44;4.50;;;2.50;;
33593;SDS011;19920;52.242;20.940;2022-07-17T01:24:11;7.72;;;2.80;;
33593;SDS011;19920;52.242;20.940;2022-07-17T01:26:40;6.07;;;2.80;;
33593;SDS011;19920;52.242;20.940;2022-07-17T01:29:08;5.00;;;2.83;;
33593;SDS011;19920;52.242;20.940;2022-07-17T01:31:34;4.72;;;3.10;;
33593;SDS011;19920;52.242;20.940;2022-07-17T01:34:00;5.95;;;3.15;;
33593;SDS011;19920;52.242;20.940;2022-07-17T01:36:26;5.63;;;2.97;;
33593;SDS011;19920;52.242;20.940;2022-07-17T01:38:51;5.55;;;3.00;;
33593;SDS011;19920;52.242;20.940;2022-07-17T01:41:17;5.97;;;3.40;;
33593;SDS011;19920;52.242;20.940;2022-07-17T01:43:43;6.00;;;3.22;;
33593;SDS011;19920;52.242;20.940;2022-07-17T01:46:09;6.32;;;3.70;;
33593;SDS011;19920;52.242;20.940;2022-07-17T01:48:34;7.97;;;4.30;;
33593;SDS011;19920;52.242;20.940;2022-07-17T01:51:00;5.15;;;3.72;;
33593;SDS011;19920;52.242;20.940;2022-07-17T01:53:28;8.48;;;4.07;;
33593;SDS011;19920;52.242;20.940;2022-07-17T01:55:53;7.97;;;4.00;;
33593;SDS011;19920;52.242;20.940;2022-07-17T01:58:19;11.43;;;4.57;;
33593;SDS011;19920;52.242;20.940;2022-07-17T02:00:45;9.80;;;3.90;;
33593;SDS011;19920;52.242;20.940;2022-07-17T02:03:10;9.48;;;4.10;;
33593;SDS011;19920;52.242;20.940;2022-07-17T02:05:36;7.03;;;3.85;;
33593;SDS011;19920;52.242;20.940;2022-07-17T02:08:02;6.82;;;3.63;;
33593;SDS011;19920;52.242;20.940;2022-07-17T02:10:28;10.50;;;3.97;;
33593;SDS011;19920;52.242;20.940;2022-07-17T02:12:54;7.68;;;4.07;;
33593;SDS011;19920;52.242;20.940;2022-07-17T02:15:19;7.50;;;4.15;;
33593;SDS011;19920;52.242;20.940;2022-07-17T02:17:45;4.75;;;3.72;;
33593;SDS011;19920;52.242;20.940;2022-07-17T02:20:12;11.10;;;3.85;;
33593;SDS011;19920;52.242;20.940;2022-07-17T02:22:37;6.88;;;4.10;;
33593;SDS011;19920;52.242;20.940;2022-07-17T02:25:04;8.25;;;3.83;;
33593;SDS011;19920;52.242;20.940;2022-07-17T02:27:31;7.25;;;4.05;;
33593;SDS011;19920;52.242;20.940;2022-07-17T02:29:57;7.05;;;3.92;;
33593;SDS011;19920;52.242;20.940;2022-07-17T02:32:23;8.32;;;3.85;;
33593;SDS011;19920;52.242;20.940;2022-07-17T02:34:48;6.60;;;3.83;;
33593;SDS011;19920;52.242;20.940;2022-07-17T02:37:14;8.98;;;4.53;;
33593;SDS011;19920;52.242;20.940;2022-07-17T02:39:40;7.80;;;4.32;;
33593;SDS011;19920;52.242;20.940;2022-07-17T02:42:18;8.13;;;4.38;;
33593;SDS011;19920;52.242;20.940;2022-07-17T02:44:47;8.85;;;4.40;;
33593;SDS011;19920;52.242;20.940;2022-07-17T02:47:20;7.07;;;4.43;;
33593;SDS011;19920;52.242;20.940;2022-07-17T02:52:31;6.45;;;4.03;;
33593;SDS011;19920;52.242;20.940;2022-07-17T02:54:56;12.05;;;4.32;;
33593;SDS011;19920;52.242;20.940;2022-07-17T02:57:22;7.90;;;4.18;;
33593;SDS011;19920;52.242;20.940;2022-07-17T02:59:48;12.95;;;4.45;;
33593;SDS011;19920;52.242;20.940;2022-07-17T03:02:13;10.65;;;4.60;;
33593;SDS011;19920;52.242;20.940;2022-07-17T03:04:39;9.20;;;4.40;;
33593;SDS011;19920;52.242;20.940;2022-07-17T03:07:05;14.13;;;4.55;;
33593;SDS011;19920;52.242;20.940;2022-07-17T03:09:31;7.97;;;4.57;;
33593;SDS011;19920;52.242;20.940;2022-07-17T03:11:56;9.30;;;4.05;;
33593;SDS011;19920;52.242;20.940;2022-07-17T03:14:22;10.07;;;4.57;;
33593;SDS011;19920;52.242;20.940;2022-07-17T03:16:48;7.72;;;4.50;;
33593;SDS011;19920;52.242;20.940;2022-07-17T03:19:13;6.80;;;4.50;;
33593;SDS011;19920;52.242;20.940;2022-07-17T03:21:39;6.22;;;4.13;;
33593;SDS011;19920;52.242;20.940;2022-07-17T03:24:05;9.52;;;4.40;;
33593;SDS011;19920;52.242;20.940;2022-07-17T03:26:30;8.52;;;4.22;;
33593;SDS011;19920;52.242;20.940;2022-07-17T03:28:56;7.25;;;4.10;;
33593;SDS011;19920;52.242;20.940;2022-07-17T03:31:22;8.38;;;3.60;;
33593;SDS011;19920;52.242;20.940;2022-07-17T03:33:47;8.23;;;4.18;;
33593;SDS011;19920;52.242;20.940;2022-07-17T03:36:13;6.55;;;3.60;;
33593;SDS011;19920;52.242;20.940;2022-07-17T03:38:38;10.13;;;4.18;;
33593;SDS011;19920;52.242;20.940;2022-07-17T03:41:04;9.48;;;3.60;;
33593;SDS011;19920;52.242;20.940;2022-07-17T03:43:30;7.63;;;3.92;;
33593;SDS011;19920;52.242;20.940;2022-07-17T03:45:55;10.48;;;3.92;;
33593;SDS011;19920;52.242;20.940;2022-07-17T03:48:21;8.88;;;3.75;;
33593;SDS011;19920;52.242;20.940;2022-07-17T03:50:47;10.13;;;3.38;;
33593;SDS011;19920;52.242;20.940;2022-07-17T03:53:12;4.35;;;3.55;;
33593;SDS011;19920;52.242;20.940;2022-07-17T03:55:38;6.18;;;3.55;;
33593;SDS011;19920;52.242;20.940;2022-07-17T03:58:03;8.20;;;3.33;;
33593;SDS011;19920;52.242;20.940;2022-07-17T04:00:29;8.88;;;3.60;;
33593;SDS011;19920;52.242;20.940;2022-07-17T04:02:55;4.72;;;2.88;;
33593;SDS011;19920;52.242;20.940;2022-07-17T04:05:20;5.93;;;3.45;;
33593;SDS011;19920;52.242;20.940;2022-07-17T04:07:46;9.57;;;3.80;;
33593;SDS011;19920;52.242;20.940;2022-07-17T04:10:13;6.93;;;3.90;;
33593;SDS011;19920;52.242;20.940;2022-07-17T04:12:39;5.80;;;3.30;;
33593;SDS011;19920;52.242;20.940;2022-07-17T04:15:06;4.35;;;3.35;;
33593;SDS011;19920;52.242;20.940;2022-07-17T04:17:32;5.60;;;3.38;;
33593;SDS011;19920;52.242;20.940;2022-07-17T04:19:58;7.28;;;3.40;;
33593;SDS011;19920;52.242;20.940;2022-07-17T04:22:24;5.35;;;3.47;;
33593;SDS011;19920;52.242;20.940;2022-07-17T04:24:50;9.85;;;3.47;;
33593;SDS011;19920;52.242;20.940;2022-07-17T04:27:16;7.13;;;3.55;;
33593;SDS011;19920;52.242;20.940;2022-07-17T04:29:42;8.43;;;3.03;;
33593;SDS011;19920;52.242;20.940;2022-07-17T04:32:08;9.40;;;3.17;;
33593;SDS011;19920;52.242;20.940;2022-07-17T04:34:34;7.20;;;3.03;;
33593;SDS011;19920;52.242;20.940;2022-07-17T04:37:01;4.45;;;2.78;;
33593;SDS011;19920;52.242;20.940;2022-07-17T04:39:27;8.88;;;3.20;;
33593;SDS011;19920;52.242;20.940;2022-07-17T04:41:53;7.18;;;3.20;;
33593;SDS011;19920;52.242;20.940;2022-07-17T04:44:19;4.60;;;2.50;;
33593;SDS011;19920;52.242;20.940;2022-07-17T04:46:45;6.38;;;2.67;;
33593;SDS011;19920;52.242;20.940;2022-07-17T04:49:11;7.80;;;2.58;;
33593;SDS011;19920;52.242;20.940;2022-07-17T04:51:37;5.82;;;2.70;;
33593;SDS011;19920;52.242;20.940;2022-07-17T04:54:03;5.30;;;2.15;;
33593;SDS011;19920;52.242;20.940;2022-07-17T04:56:29;3.97;;;2.50;;
33593;SDS011;19920;52.242;20.940;2022-07-17T04:58:54;6.20;;;2.20;;
33593;SDS011;19920;52.242;20.940;2022-07-17T05:01:20;2.97;;;2.17;;
33593;SDS011;19920;52.242;20.940;2022-07-17T05:03:46;3.80;;;2.13;;
33593;SDS011;19920;52.242;20.940;2022-07-17T05:06:12;7.53;;;2.50;;
33593;SDS011;19920;52.242;20.940;2022-07-17T05:08:37;4.82;;;2.42;;
33593;SDS011;19920;52.242;20.940;2022-07-17T05:11:03;5.57;;;2.10;;
33593;SDS011;19920;52.242;20.940;2022-07-17T05:13:29;6.78;;;2.58;;
33593;SDS011;19920;52.242;20.940;2022-07-17T05:15:54;6.05;;;2.25;;
33593;SDS011;19920;52.242;20.940;2022-07-17T05:18:20;8.57;;;2.13;;
33593;SDS011;19920;52.242;20.940;2022-07-17T05:20:46;5.15;;;1.88;;
33593;SDS011;19920;52.242;20.940;2022-07-17T05:23:12;7.13;;;2.40;;
33593;SDS011;19920;52.242;20.940;2022-07-17T05:25:37;7.72;;;2.30;;
33593;SDS011;19920;52.242;20.940;2022-07-17T05:28:03;6.57;;;2.20;;
33593;SDS011;19920;52.242;20.940;2022-07-17T05:30:29;4.30;;;1.85;;
33593;SDS011;19920;52.242;20.940;2022-07-17T05:32:55;7.47;;;2.42;;
33593;SDS011;19920;52.242;20.940;2022-07-17T05:35:21;6.95;;;2.40;;
33593;SDS011;19920;52.242;20.940;2022-07-17T05:37:46;4.32;;;2.10;;
33593;SDS011;19920;52.242;20.940;2022-07-17T05:40:12;8.38;;;2.22;;
33593;SDS011;19920;52.242;20.940;2022-07-17T05:42:38;3.92;;;1.83;;
33593;SDS011;19920;52.242;20.940;2022-07-17T05:45:04;4.72;;;2.10;;
33593;SDS011;19920;52.242;20.940;2022-07-17T05:47:30;8.57;;;2.20;;
33593;SDS011;19920;52.242;20.940;2022-07-17T05:49:56;5.68;;;2.20;;
33593;SDS011;19920;52.242;20.940;2022-07-17T05:52:22;6.90;;;2.50;;
33593;SDS011;19920;52.242;20.940;2022-07-17T05:54:48;6.43;;;1.98;;
33593;SDS011;19920;52.242;20.940;2022-07-17T05:57:13;5.25;;;2.10;;
33593;SDS011;19920;52.242;20.940;2022-07-17T05:59:39;4.82;;;2.05;;
33593;SDS011;19920;52.242;20.940;2022-07-17T06:02:05;8.85;;;3.13;;
33593;SDS011;19920;52.242;20.940;2022-07-17T06:04:30;8.85;;;2.15;;
33593;SDS011;19920;52.242;20.940;2022-07-17T06:06:56;7.60;;;2.35;;
33593;SDS011;19920;52.242;20.940;2022-07-17T06:09:22;5.50;;;2.00;;
33593;SDS011;19920;52.242;20.940;2022-07-17T06:11:47;9.18;;;2.22;;
33593;SDS011;19920;52.242;20.940;2022-07-17T06:14:13;5.75;;;1.80;;
33593;SDS011;19920;52.242;20.940;2022-07-17T06:16:39;4.35;;;1.98;;
33593;SDS011;19920;52.242;20.940;2022-07-17T06:19:05;5.13;;;1.90;;
33593;SDS011;19920;52.242;20.940;2022-07-17T06:21:31;11.35;;;2.10;;
33593;SDS011;19920;52.242;20.940;2022-07-17T06:23:57;7.28;;;1.92;;
33593;SDS011;19920;52.242;20.940;2022-07-17T06:26:22;4.85;;;1.80;;
33593;SDS011;19920;52.242;20.940;2022-07-17T06:28:48;6.28;;;1.80;;
33593;SDS011;19920;52.242;20.940;2022-07-17T06:31:14;5.95;;;1.95;;
33593;SDS011;19920;52.242;20.940;2022-07-17T06:33:40;8.05;;;2.35;;
33593;SDS011;19920;52.242;20.940;2022-07-17T06:36:05;5.88;;;1.88;;
33593;SDS011;19920;52.242;20.940;2022-07-17T06:38:34;6.65;;;2.40;;
33593;SDS011;19920;52.242;20.940;2022-07-17T06:41:00;6.50;;;2.90;;
33593;SDS011;19920;52.242;20.940;2022-07-17T06:43:26;6.20;;;3.20;;
33593;SDS011;19920;52.242;20.940;2022-07-17T06:45:52;4.95;;;3.17;;
33593;SDS011;19920;52.242;20.940;2022-07-17T06:48:19;6.97;;;3.20;;
33593;SDS011;19920;52.242;20.940;2022-07-17T06:50:46;5.30;;;3.20;;
33593;SDS011;19920;52.242;20.940;2022-07-17T06:53:12;5.25;;;3.50;;
33593;SDS011;19920;52.242;20.940;2022-07-17T06:55:38;5.13;;;3.53;;
33593;SDS011;19920;52.242;20.940;2022-07-17T06:58:04;4.68;;;3.83;;
33593;SDS011;19920;52.242;20.940;2022-07-17T07:00:30;8.38;;;4.00;;
33593;SDS011;19920;52.242;20.940;2022-07-17T07:02:56;6.95;;;3.63;;
33593;SDS011;19920;52.242;20.940;2022-07-17T07:05:22;7.68;;;3.30;;
33593;SDS011;19920;52.242;20.940;2022-07-17T07:07:47;6.20;;;3.35;;
33593;SDS011;19920;52.242;20.940;2022-07-17T07:10:13;5.68;;;3.60;;
33593;SDS011;19920;52.242;20.940;2022-07-17T07:12:39;6.70;;;3.88;;
33593;SDS011;19920;52.242;20.940;2022-07-17T07:15:05;6.32;;;3.92;;
33593;SDS011;19920;52.242;20.940;2022-07-17T07:17:33;6.25;;;3.80;;
33593;SDS011;19920;52.242;20.940;2022-07-17T07:20:00;9.23;;;4.20;;
33593;SDS011;19920;52.242;20.940;2022-07-17T07:22:26;5.55;;;3.50;;
33593;SDS011;19920;52.242;20.940;2022-07-17T07:24:52;5.88;;;3.67;;
33593;SDS011;19920;52.242;20.940;2022-07-17T07:27:17;6.40;;;3.53;;
33593;SDS011;19920;52.242;20.940;2022-07-17T07:29:43;6.88;;;3.13;;
33593;SDS011;19920;52.242;20.940;2022-07-17T07:32:08;7.72;;;4.28;;
33593;SDS011;19920;52.242;20.940;2022-07-17T07:34:34;5.53;;;3.65;;
33593;SDS011;19920;52.242;20.940;2022-07-17T07:37:00;5.68;;;3.80;;
33593;SDS011;19920;52.242;20.940;2022-07-17T07:39:25;7.10;;;3.63;;
33593;SDS011;19920;52.242;20.940;2022-07-17T07:41:51;5.88;;;3.80;;
33593;SDS011;19920;52.242;20.940;2022-07-17T07:44:17;5.53;;;3.60;;
33593;SDS011;19920;52.242;20.940;2022-07-17T07:46:43;8.98;;;3.50;;
33593;SDS011;19920;52.242;20.940;2022-07-17T07:49:09;7.47;;;3.70;;
33593;SDS011;19920;52.242;20.940;2022-07-17T07:51:34;9.77;;;3.80;;
33593;SDS011;19920;52.242;20.940;2022-07-17T07:54:00;5.85;;;3.40;;
33593;SDS011;19920;52.242;20.940;2022-07-17T07:56:26;8.75;;;3.75;;
33593;SDS011;19920;52.242;20.940;2022-07-17T07:58:52;6.82;;;3.63;;
33593;SDS011;19920;52.242;20.940;2022-07-17T08:01:17;8.02;;;3.30;;
33593;SDS011;19920;52.242;20.940;2022-07-17T08:03:43;5.70;;;2.30;;
33593;SDS011;19920;52.242;20.940;2022-07-17T08:06:08;6.85;;;2.90;;
33593;SDS011;19920;52.242;20.940;2022-07-17T08:08:34;10.77;;;2.78;;
33593;SDS011;19920;52.242;20.940;2022-07-17T08:11:00;5.53;;;3.08;;
33593;SDS011;19920;52.242;20.940;2022-07-17T08:13:25;4.25;;;2.85;;
33593;SDS011;19920;52.242;20.940;2022-07-17T08:15:53;7.07;;;2.63;;
33593;SDS011;19920;52.242;20.940;2022-07-17T08:18:18;6.35;;;2.40;;
33593;SDS011;19920;52.242;20.940;2022-07-17T08:20:45;5.55;;;2.47;;
33593;SDS011;19920;52.242;20.940;2022-07-17T08:23:11;3.95;;;2.33;;
33593;SDS011;19920;52.242;20.940;2022-07-17T08:25:36;4.78;;;2.20;;
33593;SDS011;19920;52.242;20.940;2022-07-17T08:28:02;7.15;;;2.20;;
33593;SDS011;19920;52.242;20.940;2022-07-17T08:30:29;5.65;;;2.33;;
33593;SDS011;19920;52.242;20.940;2022-07-17T08:32:56;5.72;;;2.85;;
33593;SDS011;19920;52.242;20.940;2022-07-17T08:35:22;4.00;;;2.50;;
33593;SDS011;19920;52.242;20.940;2022-07-17T08:37:48;4.47;;;2.03;;
33593;SDS011;19920;52.242;20.940;2022-07-17T08:40:16;4.10;;;2.35;;
33593;SDS011;19920;52.242;20.940;2022-07-17T08:42:46;4.80;;;1.80;;
33593;SDS011;19920;52.242;20.940;2022-07-17T08:45:12;4.13;;;1.88;;
33593;SDS011;19920;52.242;20.940;2022-07-17T08:47:38;4.40;;;2.35;;
33593;SDS011;19920;52.242;20.940;2022-07-17T08:50:04;4.82;;;1.90;;
33593;SDS011;19920;52.242;20.940;2022-07-17T08:52:30;3.25;;;1.70;;
33593;SDS011;19920;52.242;20.940;2022-07-17T08:54:56;3.28;;;1.92;;
33593;SDS011;19920;52.242;20.940;2022-07-17T08:57:22;1.88;;;1.30;;
33593;SDS011;19920;52.242;20.940;2022-07-17T08:59:48;4.07;;;1.58;;
33593;SDS011;19920;52.242;20.940;2022-07-17T09:02:14;2.05;;;1.10;;
33593;SDS011;19920;52.242;20.940;2022-07-17T09:04:39;2.78;;;1.02;;
33593;SDS011;19920;52.242;20.940;2022-07-17T09:07:05;2.75;;;1.02;;
33593;SDS011;19920;52.242;20.940;2022-07-17T09:09:32;2.47;;;1.10;;
33593;SDS011;19920;52.242;20.940;2022-07-17T09:11:59;3.47;;;1.02;;
33593;SDS011;19920;52.242;20.940;2022-07-17T09:14:36;4.57;;;1.20;;
33593;SDS011;19920;52.242;20.940;2022-07-17T09:17:04;1.98;;;0.95;;
33593;SDS011;19920;52.242;20.940;2022-07-17T09:19:37;4.20;;;1.23;;
33593;SDS011;19920;52.242;20.940;2022-07-17T09:32:21;3.25;;;0.90;;
33593;SDS011;19920;52.242;20.940;2022-07-17T09:34:48;1.95;;;0.98;;
33593;SDS011;19920;52.242;20.940;2022-07-17T09:37:18;4.60;;;1.35;;
33593;SDS011;19920;52.242;20.940;2022-07-17T09:39:46;2.67;;;1.05;;
33593;SDS011;19920;52.242;20.940;2022-07-17T09:42:25;2.97;;;1.33;;
33593;SDS011;19920;52.242;20.940;2022-07-17T09:47:29;4.22;;;0.90;;
33593;SDS011;19920;52.242;20.940;2022-07-17T09:49:57;4.20;;;1.00;;
33593;SDS011;19920;52.242;20.940;2022-07-17T09:52:28;2.85;;;0.90;;
33593;SDS011;19920;52.242;20.940;2022-07-17T09:54:56;3.30;;;1.10;;
33593;SDS011;19920;52.242;20.940;2022-07-17T09:57:25;2.35;;;0.90;;
33593;SDS011;19920;52.242;20.940;2022-07-17T09:59:54;2.63;;;1.20;;
33593;SDS011;19920;52.242;20.940;2022-07-17T10:02:23;3.97;;;1.10;;
33593;SDS011;19920;52.242;20.940;2022-07-17T10:04:50;5.05;;;1.27;;
33593;SDS011;19920;52.242;20.940;2022-07-17T10:07:17;1.95;;;1.00;;
33593;SDS011;19920;52.242;20.940;2022-07-17T10:09:43;2.35;;;1.05;;
33593;SDS011;19920;52.242;20.940;2022-07-17T10:12:08;2.33;;;1.00;;
33593;SDS011;19920;52.242;20.940;2022-07-17T10:14:35;3.63;;;1.00;;
33593;SDS011;19920;52.242;20.940;2022-07-17T10:17:13;2.05;;;0.90;;
33593;SDS011;19920;52.242;20.940;2022-07-17T10:19:44;1.67;;;0.82;;
33593;SDS011;19920;52.242;20.940;2022-07-17T10:22:16;2.05;;;0.93;;
33593;SDS011;19920;52.242;20.940;2022-07-17T10:24:49;1.35;;;0.77;;
33593;SDS011;19920;52.242;20.940;2022-07-17T10:27:25;1.85;;;0.77;;
33593;SDS011;19920;52.242;20.940;2022-07-17T10:30:02;5.57;;;0.88;;
33593;SDS011;19920;52.242;20.940;2022-07-17T10:32:35;2.13;;;0.77;;
33593;SDS011;19920;52.242;20.940;2022-07-17T10:35:03;2.97;;;0.90;;
33593;SDS011;19920;52.242;20.940;2022-07-17T10:42:43;3.92;;;1.00;;
33593;SDS011;19920;52.242;20.940;2022-07-17T10:45:40;2.58;;;1.05;;
33593;SDS011;19920;52.242;20.940;2022-07-17T10:48:11;4.70;;;1.25;;
33593;SDS011;19920;52.242;20.940;2022-07-17T10:50:43;3.80;;;1.60;;
33593;SDS011;19920;52.242;20.940;2022-07-17T10:53:17;2.65;;;1.40;;
33593;SDS011;19920;52.242;20.940;2022-07-17T10:55:50;5.85;;;1.40;;
33593;SDS011;19920;52.242;20.940;2022-07-17T11:01:55;1.58;;;1.00;;
33593;SDS011;19920;52.242;20.940;2022-07-17T11:08:51;2.25;;;1.00;;
33593;SDS011;19920;52.242;20.940;2022-07-17T11:14:13;4.03;;;1.00;;
33593;SDS011;19920;52.242;20.940;2022-07-17T11:16:44;1.85;;;1.00;;
33593;SDS011;19920;52.242;20.940;2022-07-17T11:22:01;2.10;;;1.10;;
33593;SDS011;19920;52.242;20.940;2022-07-17T11:24:50;2.92;;;0.90;;
33593;SDS011;19920;52.242;20.940;2022-07-17T11:27:20;5.95;;;1.10;;
33593;SDS011;19920;52.242;20.940;2022-07-17T11:29:49;3.50;;;1.00;;
33593;SDS011;19920;52.242;20.940;2022-07-17T11:32:16;3.95;;;1.02;;
33593;SDS011;19920;52.242;20.940;2022-07-17T11:34:43;5.47;;;1.13;;
33593;SDS011;19920;52.242;20.940;2022-07-17T11:37:09;2.97;;;1.00;;
33593;SDS011;19920;52.242;20.940;2022-07-17T11:39:45;4.25;;;1.10;;
33593;SDS011;19920;52.242;20.940;2022-07-17T11:42:18;3.05;;;1.00;;
33593;SDS011;19920;52.242;20.940;2022-07-17T11:44:46;2.22;;;0.95;;
33593;SDS011;19920;52.242;20.940;2022-07-17T11:47:19;4.07;;;1.00;;
33593;SDS011;19920;52.242;20.940;2022-07-17T11:49:49;4.40;;;1.40;;
33593;SDS011;19920;52.242;20.940;2022-07-17T11:52:15;2.67;;;1.00;;
33593;SDS011;19920;52.242;20.940;2022-07-17T11:54:53;1.10;;;0.80;;
33593;SDS011;19920;52.242;20.940;2022-07-17T11:57:21;2.22;;;1.05;;
33593;SDS011;19920;52.242;20.940;2022-07-17T11:59:48;3.60;;;1.33;;
33593;SDS011;19920;52.242;20.940;2022-07-17T12:02:18;3.15;;;1.05;;
33593;SDS011;19920;52.242;20.940;2022-07-17T12:04:56;2.03;;;0.90;;
33593;SDS011;19920;52.242;20.940;2022-07-17T12:07:24;1.85;;;0.75;;
33593;SDS011;19920;52.242;20.940;2022-07-17T12:09:51;1.90;;;0.90;;
33593;SDS011;19920;52.242;20.940;2022-07-17T12:12:21;3.05;;;1.00;;
33593;SDS011;19920;52.242;20.940;2022-07-17T12:14:51;3.33;;;0.95;;
33593;SDS011;19920;52.242;20.940;2022-07-17T12:17:17;2.95;;;1.10;;
33593;SDS011;19920;52.242;20.940;2022-07-17T12:19:43;1.23;;;0.80;;
33593;SDS011;19920;52.242;20.940;2022-07-17T12:22:09;2.90;;;0.68;;
33593;SDS011;19920;52.242;20.940;2022-07-17T12:24:39;1.63;;;0.80;;
33593;SDS011;19920;52.242;20.940;2022-07-17T12:27:07;2.15;;;0.80;;
33593;SDS011;19920;52.242;20.940;2022-07-17T12:29:34;3.35;;;0.70;;
33593;SDS011;19920;52.242;20.940;2022-07-17T12:32:10;2.45;;;0.70;;
33593;SDS011;19920;52.242;20.940;2022-07-17T12:34:45;3.53;;;0.85;;
33593;SDS011;19920;52.242;20.940;2022-07-17T12:39:48;4.55;;;1.30;;
33593;SDS011;19920;52.242;20.940;2022-07-17T12:42:14;2.05;;;0.60;;
33593;SDS011;19920;52.242;20.940;2022-07-17T12:44:41;1.58;;;0.65;;
33593;SDS011;19920;52.242;20.940;2022-07-17T12:47:07;1.23;;;0.63;;
33593;SDS011;19920;52.242;20.940;2022-07-17T12:49:33;1.20;;;0.70;;
33593;SDS011;19920;52.242;20.940;2022-07-17T12:51:59;2.08;;;0.70;;
33593;SDS011;19920;52.242;20.940;2022-07-17T12:54:25;2.33;;;0.63;;
33593;SDS011;19920;52.242;20.940;2022-07-17T12:56:51;2.65;;;0.90;;
33593;SDS011;19920;52.242;20.940;2022-07-17T12:59:16;4.57;;;0.80;;
33593;SDS011;19920;52.242;20.940;2022-07-17T13:01:42;3.63;;;0.75;;
33593;SDS011;19920;52.242;20.940;2022-07-17T13:04:09;2.53;;;0.90;;
33593;SDS011;19920;52.242;20.940;2022-07-17T13:06:34;1.73;;;0.75;;
33593;SDS011;19920;52.242;20.940;2022-07-17T13:09:00;0.85;;;0.50;;
33593;SDS011;19920;52.242;20.940;2022-07-17T13:11:26;0.90;;;0.55;;
33593;SDS011;19920;52.242;20.940;2022-07-17T13:13:52;1.27;;;0.80;;
33593;SDS011;19920;52.242;20.940;2022-07-17T13:16:18;1.70;;;0.55;;
33593;SDS011;19920;52.242;20.940;2022-07-17T13:18:44;2.08;;;0.60;;
33593;SDS011;19920;52.242;20.940;2022-07-17T13:21:10;1.80;;;0.70;;
33593;SDS011;19920;52.242;20.940;2022-07-17T13:23:36;1.88;;;0.60;;
33593;SDS011;19920;52.242;20.940;2022-07-17T13:26:03;1.10;;;0.70;;
33593;SDS011;19920;52.242;20.940;2022-07-17T13:28:29;1.10;;;0.63;;
33593;SDS011;19920;52.242;20.940;2022-07-17T13:30:55;1.65;;;0.68;;
33593;SDS011;19920;52.242;20.940;2022-07-17T13:33:21;1.27;;;0.60;;
33593;SDS011;19920;52.242;20.940;2022-07-17T13:35:47;1.67;;;0.70;;
33593;SDS011;19920;52.242;20.940;2022-07-17T13:38:13;2.00;;;0.63;;
33593;SDS011;19920;52.242;20.940;2022-07-17T13:40:38;2.10;;;0.80;;
33593;SDS011;19920;52.242;20.940;2022-07-17T13:43:04;1.52;;;0.88;;
33593;SDS011;19920;52.242;20.940;2022-07-17T13:45:30;2.65;;;0.80;;
33593;SDS011;19920;52.242;20.940;2022-07-17T13:47:56;0.98;;;0.60;;
33593;SDS011;19920;52.242;20.940;2022-07-17T13:50:22;1.98;;;0.80;;
33593;SDS011;19920;52.242;20.940;2022-07-17T13:52:48;1.75;;;1.05;;
33593;SDS011;19920;52.242;20.940;2022-07-17T13:55:14;2.65;;;0.90;;
33593;SDS011;19920;52.242;20.940;2022-07-17T13:57:41;0.90;;;0.60;;
33593;SDS011;19920;52.242;20.940;2022-07-17T14:00:07;1.55;;;0.82;;
33593;SDS011;19920;52.242;20.940;2022-07-17T14:02:34;2.67;;;1.00;;
33593;SDS011;19920;52.242;20.940;2022-07-17T14:05:01;1.65;;;0.73;;
33593;SDS011;19920;52.242;20.940;2022-07-17T14:07:28;2.42;;;0.70;;
33593;SDS011;19920;52.242;20.940;2022-07-17T14:09:53;1.55;;;0.60;;
33593;SDS011;19920;52.242;20.940;2022-07-17T14:12:19;1.60;;;0.50;;
33593;SDS011;19920;52.242;20.940;2022-07-17T14:14:45;2.75;;;0.85;;
33593;SDS011;19920;52.242;20.940;2022-07-17T14:17:10;1.80;;;0.63;;
33593;SDS011;19920;52.242;20.940;2022-07-17T14:19:36;1.27;;;0.70;;
33593;SDS011;19920;52.242;20.940;2022-07-17T14:22:03;4.18;;;0.95;;
33593;SDS011;19920;52.242;20.940;2022-07-17T14:24:29;1.15;;;0.63;;
33593;SDS011;19920;52.242;20.940;2022-07-17T14:26:54;3.50;;;0.90;;
33593;SDS011;19920;52.242;20.940;2022-07-17T14:29:20;1.05;;;0.60;;
33593;SDS011;19920;52.242;20.940;2022-07-17T14:31:46;2.10;;;0.60;;
33593;SDS011;19920;52.242;20.940;2022-07-17T14:34:12;1.10;;;0.75;;
33593;SDS011;19920;52.242;20.940;2022-07-17T14:36:38;1.40;;;0.65;;
33593;SDS011;19920;52.242;20.940;2022-07-17T14:39:04;2.25;;;0.70;;
33593;SDS011;19920;52.242;20.940;2022-07-17T14:41:30;3.53;;;0.75;;
33593;SDS011;19920;52.242;20.940;2022-07-17T14:43:56;1.58;;;0.60;;
33593;SDS011;19920;52.242;20.940;2022-07-17T14:46:22;2.00;;;0.60;;
33593;SDS011;19920;52.242;20.940;2022-07-17T14:48:48;3.45;;;0.77;;
33593;SDS011;19920;52.242;20.940;2022-07-17T14:51:14;3.30;;;0.70;;
33593;SDS011;19920;52.242;20.940;2022-07-17T14:53:40;2.95;;;0.75;;
33593;SDS011;19920;52.242;20.940;2022-07-17T14:56:06;2.78;;;0.63;;
33593;SDS011;19920;52.242;20.940;2022-07-17T14:58:32;3.42;;;0.60;;
33593;SDS011;19920;52.242;20.940;2022-07-17T15:00:58;1.67;;;0.73;;
33593;SDS011;19920;52.242;20.940;2022-07-17T15:03:23;1.55;;;0.60;;
33593;SDS011;19920;52.242;20.940;2022-07-17T15:05:49;1.85;;;0.60;;
33593;SDS011;19920;52.242;20.940;2022-07-17T15:08:15;2.83;;;0.75;;